My Paraffin — ZCGG8 — position and weather

sailwx.info

Track history (hours):
 
Tides and Currents Weather Stations Pressure Air Temp Water Temp Dewpoint Dewpoint Depression Visibility Wind Speed Wind Dir Waves Ship Positions

My Paraffin

Last reported at 2017-Oct-22 01:35 UTC. Time now 2017-Oct-22 04:37 UTC.
Position N 01°16' E 103°49'.

Length 60 m; draft 3.4 m.

Type: Ship. MMSI: 319646000.

Date/timePositionNaut miles runAvg speedWind from/ knotsBaromVisibWave heightAir tempDewpointWater temp
2017-Oct-22 01:35N 01°16' E 103°49'0 0.0
2017-Oct-22 01:29N 01°16' E 103°49'0 0.0
2017-Oct-22 00:56N 01°16' E 103°49'0 0.0
2017-Oct-22 00:20N 01°16' E 103°49'0 0.0
2017-Oct-21 23:56N 01°16' E 103°49'0 0.0
2017-Oct-21 23:29N 01°16' E 103°49'0 0.0
2017-Oct-21 22:53N 01°16' E 103°49'0 0.0
2017-Oct-21 22:23N 01°16' E 103°49'0 0.0
2017-Oct-21 21:56N 01°16' E 103°49'0 0.0
2017-Oct-21 16:23N 01°16' E 103°49'0 0.0
2017-Oct-21 14:02N 01°16' E 103°49'0 0.0
2017-Oct-21 13:14N 01°16' E 103°49'0 0.0
2017-Oct-21 12:59N 01°16' E 103°49'0 0.0
2017-Oct-21 12:26N 01°16' E 103°49'0 0.0
2017-Oct-21 11:59N 01°16' E 103°49'0 0.0
2017-Oct-21 11:29N 01°16' E 103°49'0 0.0
2017-Oct-21 10:56N 01°16' E 103°49'0 0.0
2017-Oct-21 10:29N 01°16' E 103°49'0 0.0
2017-Oct-21 09:56N 01°16' E 103°49'0 0.0
2017-Oct-21 09:20N 01°16' E 103°49'0 0.0
2017-Oct-21 08:56N 01°16' E 103°49'0 0.0
2017-Oct-21 08:29N 01°16' E 103°49'0 0.0
2017-Oct-20 12:29N 01°16' E 103°49'0 0.0
2017-Oct-20 11:53N 01°16' E 103°49'0 0.1
2017-Oct-20 06:48N 01°16' E 103°48'1 2.0
2017-Oct-20 06:18N 01°15' E 103°48'0 0.0
2017-Oct-20 05:48N 01°15' E 103°48'0 0.0
2017-Oct-20 05:30N 01°15' E 103°48'0 0.0
2017-Oct-20 04:48N 01°15' E 103°48'0 0.0
2017-Oct-20 04:30N 01°15' E 103°48'0 0.0
2017-Oct-20 03:54N 01°15' E 103°48'0 0.2
2017-Oct-20 03:15N 01°15' E 103°48'0 0.0
2017-Oct-20 02:57N 01°15' E 103°48'0 0.0
2017-Oct-20 02:30N 01°15' E 103°48'0 0.0
2017-Oct-20 01:57N 01°15' E 103°48'0 0.2
2017-Oct-20 01:28N 01°15' E 103°48'1 0.1
2017-Oct-19 15:01N 01°16' E 103°49'0 0.0
2017-Oct-19 14:43N 01°16' E 103°49'0 0.0
2017-Oct-19 14:16N 01°16' E 103°49'0 0.0
2017-Oct-19 04:56N 01°16' E 103°49'0 0.2
2017-Oct-19 04:30N 01°16' E 103°49'510.2
2017-Oct-19 03:59N 01°14' E 103°44'613.3
2017-Oct-19 03:30N 01°13' E 103°37'611.5
2017-Oct-19 02:58N 01°19' E 103°37'2 4.4
2017-Oct-19 02:30N 01°20' E 103°38'4 8.1
2017-Oct-19 01:59N 01°17' E 103°36'4 9.2
2017-Oct-19 01:30N 01°12' E 103°38'4 6.9
2017-Oct-19 00:59N 01°16' E 103°39'3 6.3
2017-Oct-19 00:30N 01°18' E 103°41'0 0.0
2017-Oct-18 23:57N 01°18' E 103°41'0 0.0
2017-Oct-18 23:30N 01°18' E 103°41'0 0.0
2017-Oct-18 22:57N 01°18' E 103°41'0 0.0
2017-Oct-18 22:30N 01°18' E 103°41'0 0.0
2017-Oct-18 21:57N 01°18' E 103°41'0 0.0
2017-Oct-18 21:30N 01°18' E 103°41'0 0.0
2017-Oct-18 20:54N 01°18' E 103°41'0 0.0
2017-Oct-18 20:30N 01°18' E 103°41'0 0.0
2017-Oct-18 19:57N 01°18' E 103°41'0 0.0
2017-Oct-18 19:30N 01°18' E 103°41'0 0.0
2017-Oct-18 18:54N 01°18' E 103°41'0 0.0
2017-Oct-18 18:27N 01°18' E 103°41'0 0.0
2017-Oct-18 17:45N 01°18' E 103°41'0 0.0
2017-Oct-18 17:24N 01°18' E 103°41'0 0.0
2017-Oct-18 16:51N 01°18' E 103°41'0 0.0
2017-Oct-18 16:27N 01°18' E 103°41'0 0.0
2017-Oct-18 15:54N 01°18' E 103°41'0 0.0
2017-Oct-18 15:12N 01°18' E 103°41'0 0.0
2017-Oct-18 14:54N 01°18' E 103°41'0 0.0
2017-Oct-18 13:57N 01°18' E 103°41'0 0.0
2017-Oct-18 13:27N 01°18' E 103°41'0 0.0
2017-Oct-18 12:48N 01°18' E 103°41'0 0.0
2017-Oct-18 12:24N 01°18' E 103°41'0 0.0
2017-Oct-18 11:03N 01°18' E 103°41'0 0.0
2017-Oct-18 10:39N 01°18' E 103°41'0 0.0
2017-Oct-18 10:21N 01°18' E 103°41'0 0.0
2017-Oct-18 09:51N 01°18' E 103°41'0 0.0
2017-Oct-18 09:24N 01°18' E 103°41'0 0.0
2017-Oct-18 08:51N 01°18' E 103°41'0 0.0
2017-Oct-18 08:30N 01°18' E 103°41'0 0.0
2017-Oct-18 07:49N 01°18' E 103°41'0 0.0
2017-Oct-18 07:22N 01°18' E 103°41'0 0.0
2017-Oct-18 06:55N 01°18' E 103°41'0 0.0
2017-Oct-18 06:28N 01°18' E 103°41'0 0.0
2017-Oct-18 05:55N 01°18' E 103°41'0 0.0
2017-Oct-18 05:28N 01°18' E 103°41'0 0.0
2017-Oct-18 04:58N 01°18' E 103°41'0 0.0
2017-Oct-18 04:28N 01°18' E 103°41'0 0.0
2017-Oct-18 03:58N 01°18' E 103°41'0 0.0
2017-Oct-18 03:22N 01°18' E 103°41'0 0.0
2017-Oct-18 02:58N 01°18' E 103°41'0 0.0
2017-Oct-18 02:28N 01°18' E 103°41'0 0.0
2017-Oct-18 01:58N 01°18' E 103°41'0 0.0
2017-Oct-18 01:28N 01°18' E 103°41'0 0.0
2017-Oct-18 00:58N 01°18' E 103°41'0 0.0
2017-Oct-17 23:52N 01°18' E 103°41'0 0.0
2017-Oct-17 23:19N 01°18' E 103°41'0 0.0
2017-Oct-17 22:49N 01°18' E 103°41'0 0.0
2017-Oct-17 22:16N 01°18' E 103°41'0 0.0
2017-Oct-17 19:16N 01°18' E 103°41'0 0.0
2017-Oct-17 12:31N 01°18' E 103°41'0 0.0
2017-Oct-17 12:22N 01°18' E 103°41'0 0.0
2017-Oct-17 11:55N 01°18' E 103°41'0 0.0
2017-Oct-17 11:28N 01°18' E 103°41'0 0.0
2017-Oct-17 10:58N 01°18' E 103°41'0 0.0
2017-Oct-17 10:25N 01°18' E 103°41'0 0.0
2017-Oct-17 09:58N 01°18' E 103°41'0 0.0
2017-Oct-17 09:22N 01°18' E 103°41'0 0.0
2017-Oct-17 08:58N 01°18' E 103°41'0 0.0
2017-Oct-17 08:28N 01°18' E 103°41'0 0.0
2017-Oct-17 07:58N 01°18' E 103°41'0 0.0
2017-Oct-17 07:25N 01°18' E 103°41'0 0.0
2017-Oct-17 06:58N 01°18' E 103°41'0 0.0
2017-Oct-17 06:28N 01°18' E 103°41'0 0.0
2017-Oct-17 05:55N 01°18' E 103°41'0 0.0
2017-Oct-17 05:28N 01°18' E 103°41'0 0.0
2017-Oct-17 04:58N 01°18' E 103°41'0 0.0
2017-Oct-17 04:22N 01°18' E 103°41'0 0.0
2017-Oct-17 03:58N 01°18' E 103°41'0 0.0
2017-Oct-17 03:16N 01°18' E 103°41'0 0.0
2017-Oct-17 02:58N 01°18' E 103°41'0 0.0
2017-Oct-17 02:25N 01°18' E 103°41'0 0.0
2017-Oct-17 01:58N 01°18' E 103°41'0 0.0
2017-Oct-17 01:22N 01°18' E 103°41'0 0.0
2017-Oct-17 00:58N 01°18' E 103°41'0 0.0
2017-Oct-17 00:22N 01°18' E 103°41'0 0.0
2017-Oct-16 23:58N 01°18' E 103°41'0 0.0
2017-Oct-16 22:40N 01°18' E 103°41'0 0.0
2017-Oct-16 22:28N 01°18' E 103°41'0 0.0
2017-Oct-16 21:58N 01°18' E 103°41'0 0.0
2017-Oct-16 21:25N 01°18' E 103°41'0 0.0
2017-Oct-16 20:46N 01°18' E 103°41'0 0.0
2017-Oct-16 20:16N 01°18' E 103°41'0 0.0
2017-Oct-16 19:58N 01°18' E 103°41'0 0.0
2017-Oct-16 19:25N 01°18' E 103°41'0 0.0
2017-Oct-16 18:58N 01°18' E 103°41'0 0.0
2017-Oct-16 18:19N 01°18' E 103°41'0 0.0
2017-Oct-16 17:46N 01°18' E 103°41'0 0.0
2017-Oct-16 17:28N 01°18' E 103°41'0 0.0
2017-Oct-16 16:55N 01°18' E 103°41'0 0.0
2017-Oct-16 16:25N 01°18' E 103°41'0 0.0
2017-Oct-16 15:58N 01°18' E 103°41'0 0.0
2017-Oct-16 15:28N 01°18' E 103°41'0 0.0
2017-Oct-16 14:58N 01°18' E 103°41'0 0.0
2017-Oct-16 14:28N 01°18' E 103°41'0 0.0
2017-Oct-16 13:28N 01°18' E 103°41'0 0.0
2017-Oct-16 12:58N 01°18' E 103°41'0 0.0
2017-Oct-16 12:28N 01°18' E 103°41'0 0.0
2017-Oct-16 11:55N 01°18' E 103°41'0 0.0
2017-Oct-16 11:28N 01°18' E 103°41'0 0.0
2017-Oct-16 10:58N 01°18' E 103°41'0 0.0
2017-Oct-16 10:25N 01°18' E 103°41'0 0.0
2017-Oct-16 09:58N 01°18' E 103°41'0 0.0
2017-Oct-16 09:28N 01°18' E 103°41'0 0.0
2017-Oct-16 08:55N 01°18' E 103°41'0 0.0
2017-Oct-16 08:28N 01°18' E 103°41'0 0.0
2017-Oct-16 07:58N 01°18' E 103°41'0 0.0
2017-Oct-16 07:28N 01°18' E 103°41'0 0.0
2017-Oct-16 06:58N 01°18' E 103°41'0 0.0
2017-Oct-16 06:28N 01°18' E 103°41'0 0.0
2017-Oct-16 05:58N 01°18' E 103°41'0 0.0
2017-Oct-16 05:28N 01°18' E 103°41'0 0.0
2017-Oct-16 04:58N 01°18' E 103°41'0 0.0
2017-Oct-16 04:28N 01°18' E 103°41'0 0.0
2017-Oct-16 03:55N 01°18' E 103°41'0 0.0
2017-Oct-16 03:28N 01°18' E 103°41'0 0.0
2017-Oct-16 02:55N 01°18' E 103°41'0 0.0
2017-Oct-16 02:28N 01°18' E 103°41'0 0.0
2017-Oct-16 01:58N 01°18' E 103°41'0 0.0
2017-Oct-16 01:28N 01°18' E 103°41'0 0.0
2017-Oct-16 00:55N 01°18' E 103°41'0 0.0
2017-Oct-16 00:28N 01°18' E 103°41'0 0.0
2017-Oct-15 23:58N 01°18' E 103°41'0 0.0
2017-Oct-15 23:28N 01°18' E 103°41'0 0.0
2017-Oct-15 22:55N 01°18' E 103°41'0 0.0
2017-Oct-15 22:28N 01°18' E 103°41'0 0.0
2017-Oct-15 21:58N 01°18' E 103°41'0 0.0
2017-Oct-15 21:28N 01°18' E 103°41'0 0.0
2017-Oct-15 20:58N 01°18' E 103°41'0 0.0
2017-Oct-15 20:28N 01°18' E 103°41'0 0.0
2017-Oct-15 19:55N 01°18' E 103°41'0 0.0
2017-Oct-15 19:28N 01°18' E 103°41'0 0.0
2017-Oct-15 18:58N 01°18' E 103°41'0 0.0
2017-Oct-15 18:16N 01°18' E 103°41'0 0.0
2017-Oct-15 17:58N 01°18' E 103°41'0 0.0
2017-Oct-15 17:28N 01°18' E 103°41'0 0.0
2017-Oct-15 16:58N 01°18' E 103°41'0 0.0
2017-Oct-15 16:28N 01°18' E 103°41'0 0.0
2017-Oct-15 15:58N 01°18' E 103°41'0 0.0
2017-Oct-15 15:28N 01°18' E 103°41'0 0.0
2017-Oct-15 14:55N 01°18' E 103°41'0 0.0
2017-Oct-15 13:49N 01°18' E 103°41'0 0.0
2017-Oct-15 13:28N 01°18' E 103°41'0 0.0
2017-Oct-15 12:55N 01°18' E 103°41'0 0.0
2017-Oct-15 12:25N 01°18' E 103°41'0 0.0
2017-Oct-15 11:58N 01°18' E 103°41'0 0.0
2017-Oct-15 11:28N 01°18' E 103°41'0 0.0
2017-Oct-15 10:49N 01°18' E 103°41'0 0.0
2017-Oct-15 09:22N 01°18' E 103°41'0 0.0
2017-Oct-15 08:07N 01°18' E 103°41'0 0.0
2017-Oct-15 07:55N 01°18' E 103°41'0 0.0
2017-Oct-15 06:52N 01°18' E 103°41'0 0.0
2017-Oct-15 06:28N 01°18' E 103°41'0 0.0
2017-Oct-15 05:46N 01°18' E 103°41'0 0.0
2017-Oct-15 05:28N 01°18' E 103°41'0 0.0
2017-Oct-15 04:49N 01°18' E 103°41'0 0.0
2017-Oct-15 04:25N 01°18' E 103°41'0 0.0
2017-Oct-15 03:58N 01°18' E 103°41'0 0.0
2017-Oct-15 03:28N 01°18' E 103°41'0 0.0
2017-Oct-15 02:52N 01°18' E 103°41'0 0.0
2017-Oct-15 02:25N 01°18' E 103°41'0 0.0
2017-Oct-15 01:49N 01°18' E 103°41'0 0.0
2017-Oct-15 01:28N 01°18' E 103°41'0 0.0
2017-Oct-15 00:52N 01°18' E 103°41'0 0.0
2017-Oct-15 00:28N 01°18' E 103°41'0 0.0
2017-Oct-14 23:58N 01°18' E 103°41'0 0.0
2017-Oct-14 23:25N 01°18' E 103°41'0 0.0
2017-Oct-14 22:55N 01°18' E 103°41'0 0.0
2017-Oct-14 22:22N 01°18' E 103°41'0 0.0
2017-Oct-14 21:58N 01°18' E 103°41'0 0.0
2017-Oct-14 21:10N 01°18' E 103°41'0 0.0
2017-Oct-14 20:58N 01°18' E 103°41'0 0.0
2017-Oct-14 20:22N 01°18' E 103°41'0 0.0
2017-Oct-14 19:55N 01°18' E 103°41'0 0.0
2017-Oct-14 19:28N 01°18' E 103°41'0 0.0
2017-Oct-14 18:55N 01°18' E 103°41'0 0.0
2017-Oct-14 18:28N 01°18' E 103°41'0 0.0
2017-Oct-14 17:58N 01°18' E 103°41'0 0.0
2017-Oct-14 17:25N 01°18' E 103°41'0 0.0
2017-Oct-14 16:55N 01°18' E 103°41'0 0.0
2017-Oct-14 16:22N 01°18' E 103°41'0 0.0
2017-Oct-14 15:55N 01°18' E 103°41'0 0.0
2017-Oct-14 15:28N 01°18' E 103°41'0 0.0
2017-Oct-14 14:49N 01°18' E 103°41'0 0.0
2017-Oct-14 14:28N 01°18' E 103°41'0 0.0
2017-Oct-14 13:52N 01°18' E 103°41'0 0.0
2017-Oct-14 13:19N 01°18' E 103°41'0 0.0
2017-Oct-14 12:52N 01°18' E 103°41'0 0.0
2017-Oct-14 12:25N 01°18' E 103°41'0 0.0
2017-Oct-14 11:58N 01°18' E 103°41'0 0.0
2017-Oct-14 11:28N 01°18' E 103°41'0 0.0
2017-Oct-14 10:58N 01°18' E 103°41'0 0.0
2017-Oct-14 10:25N 01°18' E 103°41'0 0.0
2017-Oct-14 09:58N 01°18' E 103°41'0 0.0
2017-Oct-14 09:25N 01°18' E 103°41'0 0.0
2017-Oct-14 08:58N 01°18' E 103°41'0 0.0
2017-Oct-14 08:25N 01°18' E 103°41'0 0.0
2017-Oct-14 07:55N 01°18' E 103°41'0 0.0
2017-Oct-14 07:25N 01°18' E 103°41'0 0.0
2017-Oct-14 06:58N 01°18' E 103°41'0 0.0
2017-Oct-14 06:28N 01°18' E 103°41'0 0.0
2017-Oct-14 05:58N 01°18' E 103°41'0 0.0
2017-Oct-14 05:28N 01°18' E 103°41'0 0.0
2017-Oct-14 04:58N 01°18' E 103°41'0 0.0
2017-Oct-14 04:28N 01°18' E 103°41'0 0.0
2017-Oct-14 03:58N 01°18' E 103°41'0 0.0
2017-Oct-14 03:25N 01°18' E 103°41'0 0.0
2017-Oct-14 02:58N 01°18' E 103°41'0 0.0
2017-Oct-14 02:28N 01°18' E 103°41'0 0.0
2017-Oct-14 01:58N 01°18' E 103°41'0 0.0
2017-Oct-14 01:28N 01°18' E 103°41'0 0.0
2017-Oct-14 00:58N 01°18' E 103°41'0 0.0
2017-Oct-14 00:28N 01°18' E 103°41'0 0.0
2017-Oct-13 23:58N 01°18' E 103°41'0 0.0
2017-Oct-13 23:28N 01°18' E 103°41'0 0.0
2017-Oct-13 22:58N 01°18' E 103°41'0 0.0
2017-Oct-13 22:28N 01°18' E 103°41'0 0.0
2017-Oct-13 21:58N 01°18' E 103°41'0 0.0
2017-Oct-13 21:28N 01°18' E 103°41'0 0.0
2017-Oct-13 20:58N 01°18' E 103°41'0 0.0
2017-Oct-13 20:28N 01°18' E 103°41'0 0.0
2017-Oct-13 19:49N 01°18' E 103°41'0 0.0
2017-Oct-13 19:28N 01°18' E 103°41'0 0.0
2017-Oct-13 18:52N 01°18' E 103°41'0 0.0
2017-Oct-13 18:28N 01°18' E 103°41'0 0.0
2017-Oct-13 17:58N 01°18' E 103°41'0 0.0
2017-Oct-13 17:22N 01°18' E 103°41'0 0.0
2017-Oct-13 16:49N 01°18' E 103°41'0 0.0
2017-Oct-13 16:28N 01°18' E 103°41'0 0.0
2017-Oct-13 15:52N 01°18' E 103°41'0 0.0
2017-Oct-13 15:28N 01°18' E 103°41'0 0.0
2017-Oct-13 14:43N 01°18' E 103°41'0 0.0
2017-Oct-13 14:28N 01°18' E 103°41'0 0.0
2017-Oct-13 13:58N 01°18' E 103°41'0 0.0
2017-Oct-13 13:28N 01°18' E 103°41'0 0.0
2017-Oct-13 12:55N 01°18' E 103°41'0 0.0
2017-Oct-13 12:28N 01°18' E 103°41'0 0.0
2017-Oct-13 11:58N 01°18' E 103°41'0 0.0
2017-Oct-13 11:28N 01°18' E 103°41'0 0.0
2017-Oct-13 10:55N 01°18' E 103°41'0 0.0
2017-Oct-13 10:22N 01°18' E 103°41'0 0.0
2017-Oct-13 09:55N 01°18' E 103°41'0 0.0
2017-Oct-13 09:28N 01°18' E 103°41'0 0.0
2017-Oct-13 08:58N 01°18' E 103°41'0 0.0
2017-Oct-13 08:25N 01°18' E 103°41'0 0.0
2017-Oct-13 07:58N 01°18' E 103°41'0 0.0
2017-Oct-13 07:28N 01°18' E 103°41'0 0.0
2017-Oct-13 06:58N 01°18' E 103°41'0 0.0
2017-Oct-13 06:28N 01°18' E 103°41'0 0.0
2017-Oct-13 05:52N 01°18' E 103°41'0 0.0
2017-Oct-13 05:28N 01°18' E 103°41'0 0.0
2017-Oct-13 04:58N 01°18' E 103°41'0 0.0
2017-Oct-13 04:28N 01°18' E 103°41'0 0.0
2017-Oct-13 03:58N 01°18' E 103°41'0 0.0
2017-Oct-13 03:28N 01°18' E 103°41'0 0.0
2017-Oct-13 02:58N 01°18' E 103°41'0 0.0
2017-Oct-13 02:28N 01°18' E 103°41'0 0.0
2017-Oct-13 01:58N 01°18' E 103°41'0 0.0
2017-Oct-13 01:28N 01°18' E 103°41'0 0.0
2017-Oct-13 00:58N 01°18' E 103°41'0 0.0
2017-Oct-13 00:28N 01°18' E 103°41'0 0.0
2017-Oct-12 23:55N 01°18' E 103°41'0 0.0
2017-Oct-12 23:28N 01°18' E 103°41'0 0.0
2017-Oct-12 22:58N 01°18' E 103°41'0 0.0
2017-Oct-12 22:28N 01°18' E 103°41'0 0.0
2017-Oct-12 21:58N 01°18' E 103°41'0 0.0
2017-Oct-12 21:25N 01°18' E 103°41'0 0.0
2017-Oct-12 20:58N 01°18' E 103°41'0 0.0
2017-Oct-12 20:28N 01°18' E 103°41'0 0.0
2017-Oct-12 19:58N 01°18' E 103°41'0 0.0
2017-Oct-12 19:28N 01°18' E 103°41'0 0.0
2017-Oct-12 18:55N 01°18' E 103°41'0 0.0
2017-Oct-12 18:25N 01°18' E 103°41'0 0.0
2017-Oct-12 17:58N 01°18' E 103°41'0 0.0
2017-Oct-12 17:28N 01°18' E 103°41'0 0.0
2017-Oct-12 16:55N 01°18' E 103°41'0 0.0
2017-Oct-12 16:28N 01°18' E 103°41'0 0.0
2017-Oct-12 15:58N 01°18' E 103°41'0 0.0
2017-Oct-12 15:28N 01°18' E 103°41'0 0.0
2017-Oct-12 14:55N 01°18' E 103°41'0 0.0
2017-Oct-12 14:25N 01°18' E 103°41'0 0.0
2017-Oct-12 13:49N 01°18' E 103°41'0 0.0
2017-Oct-12 13:28N 01°18' E 103°41'0 0.0
2017-Oct-12 12:58N 01°18' E 103°41'0 0.0
2017-Oct-12 12:19N 01°18' E 103°41'0 0.0
2017-Oct-12 11:55N 01°18' E 103°41'0 0.0
2017-Oct-12 11:28N 01°18' E 103°41'0 0.0
2017-Oct-12 10:58N 01°18' E 103°41'0 0.0
2017-Oct-12 10:22N 01°18' E 103°41'0 0.0
2017-Oct-12 09:58N 01°18' E 103°41'0 0.0
2017-Oct-12 09:22N 01°18' E 103°41'0 0.0
2017-Oct-12 08:58N 01°18' E 103°41'0 0.0
2017-Oct-12 08:28N 01°18' E 103°41'0 0.0
2017-Oct-12 07:58N 01°18' E 103°41'0 0.0
2017-Oct-12 07:28N 01°18' E 103°41'0 0.0
2017-Oct-12 06:55N 01°18' E 103°41'0 0.0
2017-Oct-12 06:28N 01°18' E 103°41'0 0.0
2017-Oct-12 05:58N 01°18' E 103°41'0 0.0
2017-Oct-12 05:28N 01°18' E 103°41'0 0.0
2017-Oct-12 04:58N 01°18' E 103°41'0 0.0
2017-Oct-12 04:28N 01°18' E 103°41'0 0.0
2017-Oct-12 03:58N 01°18' E 103°41'0 0.0
2017-Oct-12 03:28N 01°18' E 103°41'0 0.0
2017-Oct-12 02:46N 01°18' E 103°41'0 0.0
2017-Oct-12 02:22N 01°18' E 103°41'0 0.0
2017-Oct-12 01:58N 01°18' E 103°41'  
Track history (hours):
 
Tides and Currents Weather Stations Pressure Air Temp Water Temp Dewpoint Dewpoint Depression Visibility Wind Speed Wind Dir Waves Ship Positions

My Paraffin

Last reported at 2017-Oct-22 01:35 UTC. Time now 2017-Oct-22 04:37 UTC.
Position N 01°16' E 103°49'.

Length 60 m; draft 3.4 m.

Type: Ship. MMSI: 319646000.

Date/timePositionNaut miles runAvg speedWind from/ knotsBaromVisibWave heightAir tempDewpointWater temp
2017-Oct-22 01:35N 01°16' E 103°49'0 0.0
2017-Oct-22 01:29N 01°16' E 103°49'0 0.0
2017-Oct-22 00:56N 01°16' E 103°49'0 0.0
2017-Oct-22 00:20N 01°16' E 103°49'0 0.0
2017-Oct-21 23:56N 01°16' E 103°49'0 0.0
2017-Oct-21 23:29N 01°16' E 103°49'0 0.0
2017-Oct-21 22:53N 01°16' E 103°49'0 0.0
2017-Oct-21 22:23N 01°16' E 103°49'0 0.0
2017-Oct-21 21:56N 01°16' E 103°49'0 0.0
2017-Oct-21 16:23N 01°16' E 103°49'0 0.0
2017-Oct-21 14:02N 01°16' E 103°49'0 0.0
2017-Oct-21 13:14N 01°16' E 103°49'0 0.0
2017-Oct-21 12:59N 01°16' E 103°49'0 0.0
2017-Oct-21 12:26N 01°16' E 103°49'0 0.0
2017-Oct-21 11:59N 01°16' E 103°49'0 0.0
2017-Oct-21 11:29N 01°16' E 103°49'0 0.0
2017-Oct-21 10:56N 01°16' E 103°49'0 0.0
2017-Oct-21 10:29N 01°16' E 103°49'0 0.0
2017-Oct-21 09:56N 01°16' E 103°49'0 0.0
2017-Oct-21 09:20N 01°16' E 103°49'0 0.0
2017-Oct-21 08:56N 01°16' E 103°49'0 0.0
2017-Oct-21 08:29N 01°16' E 103°49'0 0.0
2017-Oct-20 12:29N 01°16' E 103°49'0 0.0
2017-Oct-20 11:53N 01°16' E 103°49'0 0.1
2017-Oct-20 06:48N 01°16' E 103°48'1 2.0
2017-Oct-20 06:18N 01°15' E 103°48'0 0.0
2017-Oct-20 05:48N 01°15' E 103°48'0 0.0
2017-Oct-20 05:30N 01°15' E 103°48'0 0.0
2017-Oct-20 04:48N 01°15' E 103°48'0 0.0
2017-Oct-20 04:30N 01°15' E 103°48'0 0.0
2017-Oct-20 03:54N 01°15' E 103°48'0 0.2
2017-Oct-20 03:15N 01°15' E 103°48'0 0.0
2017-Oct-20 02:57N 01°15' E 103°48'0 0.0
2017-Oct-20 02:30N 01°15' E 103°48'0 0.0
2017-Oct-20 01:57N 01°15' E 103°48'0 0.2
2017-Oct-20 01:28N 01°15' E 103°48'1 0.1
2017-Oct-19 15:01N 01°16' E 103°49'0 0.0
2017-Oct-19 14:43N 01°16' E 103°49'0 0.0
2017-Oct-19 14:16N 01°16' E 103°49'0 0.0
2017-Oct-19 04:56N 01°16' E 103°49'0 0.2
2017-Oct-19 04:30N 01°16' E 103°49'510.2
2017-Oct-19 03:59N 01°14' E 103°44'613.3
2017-Oct-19 03:30N 01°13' E 103°37'611.5
2017-Oct-19 02:58N 01°19' E 103°37'2 4.4
2017-Oct-19 02:30N 01°20' E 103°38'4 8.1
2017-Oct-19 01:59N 01°17' E 103°36'4 9.2
2017-Oct-19 01:30N 01°12' E 103°38'4 6.9
2017-Oct-19 00:59N 01°16' E 103°39'3 6.3
2017-Oct-19 00:30N 01°18' E 103°41'0 0.0
2017-Oct-18 23:57N 01°18' E 103°41'0 0.0
2017-Oct-18 23:30N 01°18' E 103°41'0 0.0
2017-Oct-18 22:57N 01°18' E 103°41'0 0.0
2017-Oct-18 22:30N 01°18' E 103°41'0 0.0
2017-Oct-18 21:57N 01°18' E 103°41'0 0.0
2017-Oct-18 21:30N 01°18' E 103°41'0 0.0
2017-Oct-18 20:54N 01°18' E 103°41'0 0.0
2017-Oct-18 20:30N 01°18' E 103°41'0 0.0
2017-Oct-18 19:57N 01°18' E 103°41'0 0.0
2017-Oct-18 19:30N 01°18' E 103°41'0 0.0
2017-Oct-18 18:54N 01°18' E 103°41'0 0.0
2017-Oct-18 18:27N 01°18' E 103°41'0 0.0
2017-Oct-18 17:45N 01°18' E 103°41'0 0.0
2017-Oct-18 17:24N 01°18' E 103°41'0 0.0
2017-Oct-18 16:51N 01°18' E 103°41'0 0.0
2017-Oct-18 16:27N 01°18' E 103°41'0 0.0
2017-Oct-18 15:54N 01°18' E 103°41'0 0.0
2017-Oct-18 15:12N 01°18' E 103°41'0 0.0
2017-Oct-18 14:54N 01°18' E 103°41'0 0.0
2017-Oct-18 13:57N 01°18' E 103°41'0 0.0
2017-Oct-18 13:27N 01°18' E 103°41'0 0.0
2017-Oct-18 12:48N 01°18' E 103°41'0 0.0
2017-Oct-18 12:24N 01°18' E 103°41'0 0.0
2017-Oct-18 11:03N 01°18' E 103°41'0 0.0
2017-Oct-18 10:39N 01°18' E 103°41'0 0.0
2017-Oct-18 10:21N 01°18' E 103°41'0 0.0
2017-Oct-18 09:51N 01°18' E 103°41'0 0.0
2017-Oct-18 09:24N 01°18' E 103°41'0 0.0
2017-Oct-18 08:51N 01°18' E 103°41'0 0.0
2017-Oct-18 08:30N 01°18' E 103°41'0 0.0
2017-Oct-18 07:49N 01°18' E 103°41'0 0.0
2017-Oct-18 07:22N 01°18' E 103°41'0 0.0
2017-Oct-18 06:55N 01°18' E 103°41'0 0.0
2017-Oct-18 06:28N 01°18' E 103°41'0 0.0
2017-Oct-18 05:55N 01°18' E 103°41'0 0.0
2017-Oct-18 05:28N 01°18' E 103°41'0 0.0
2017-Oct-18 04:58N 01°18' E 103°41'0 0.0
2017-Oct-18 04:28N 01°18' E 103°41'0 0.0
2017-Oct-18 03:58N 01°18' E 103°41'0 0.0
2017-Oct-18 03:22N 01°18' E 103°41'0 0.0
2017-Oct-18 02:58N 01°18' E 103°41'0 0.0
2017-Oct-18 02:28N 01°18' E 103°41'0 0.0
2017-Oct-18 01:58N 01°18' E 103°41'0 0.0
2017-Oct-18 01:28N 01°18' E 103°41'0 0.0
2017-Oct-18 00:58N 01°18' E 103°41'0 0.0
2017-Oct-17 23:52N 01°18' E 103°41'0 0.0
2017-Oct-17 23:19N 01°18' E 103°41'0 0.0
2017-Oct-17 22:49N 01°18' E 103°41'0 0.0
2017-Oct-17 22:16N 01°18' E 103°41'0 0.0
2017-Oct-17 19:16N 01°18' E 103°41'0 0.0
2017-Oct-17 12:31N 01°18' E 103°41'0 0.0
2017-Oct-17 12:22N 01°18' E 103°41'0 0.0
2017-Oct-17 11:55N 01°18' E 103°41'0 0.0
2017-Oct-17 11:28N 01°18' E 103°41'0 0.0
2017-Oct-17 10:58N 01°18' E 103°41'0 0.0
2017-Oct-17 10:25N 01°18' E 103°41'0 0.0
2017-Oct-17 09:58N 01°18' E 103°41'0 0.0
2017-Oct-17 09:22N 01°18' E 103°41'0 0.0
2017-Oct-17 08:58N 01°18' E 103°41'0 0.0
2017-Oct-17 08:28N 01°18' E 103°41'0 0.0
2017-Oct-17 07:58N 01°18' E 103°41'0 0.0
2017-Oct-17 07:25N 01°18' E 103°41'0 0.0
2017-Oct-17 06:58N 01°18' E 103°41'0 0.0
2017-Oct-17 06:28N 01°18' E 103°41'0 0.0
2017-Oct-17 05:55N 01°18' E 103°41'0 0.0
2017-Oct-17 05:28N 01°18' E 103°41'0 0.0
2017-Oct-17 04:58N 01°18' E 103°41'0 0.0
2017-Oct-17 04:22N 01°18' E 103°41'0 0.0
2017-Oct-17 03:58N 01°18' E 103°41'0 0.0
2017-Oct-17 03:16N 01°18' E 103°41'0 0.0
2017-Oct-17 02:58N 01°18' E 103°41'0 0.0
2017-Oct-17 02:25N 01°18' E 103°41'0 0.0
2017-Oct-17 01:58N 01°18' E 103°41'0 0.0
2017-Oct-17 01:22N 01°18' E 103°41'0 0.0
2017-Oct-17 00:58N 01°18' E 103°41'0 0.0
2017-Oct-17 00:22N 01°18' E 103°41'0 0.0
2017-Oct-16 23:58N 01°18' E 103°41'0 0.0
2017-Oct-16 22:40N 01°18' E 103°41'0 0.0
2017-Oct-16 22:28N 01°18' E 103°41'0 0.0
2017-Oct-16 21:58N 01°18' E 103°41'0 0.0
2017-Oct-16 21:25N 01°18' E 103°41'0 0.0
2017-Oct-16 20:46N 01°18' E 103°41'0 0.0
2017-Oct-16 20:16N 01°18' E 103°41'0 0.0
2017-Oct-16 19:58N 01°18' E 103°41'0 0.0
2017-Oct-16 19:25N 01°18' E 103°41'0 0.0
2017-Oct-16 18:58N 01°18' E 103°41'0 0.0
2017-Oct-16 18:19N 01°18' E 103°41'0 0.0
2017-Oct-16 17:46N 01°18' E 103°41'0 0.0
2017-Oct-16 17:28N 01°18' E 103°41'0 0.0
2017-Oct-16 16:55N 01°18' E 103°41'0 0.0
2017-Oct-16 16:25N 01°18' E 103°41'0 0.0
2017-Oct-16 15:58N 01°18' E 103°41'0 0.0
2017-Oct-16 15:28N 01°18' E 103°41'0 0.0
2017-Oct-16 14:58N 01°18' E 103°41'0 0.0
2017-Oct-16 14:28N 01°18' E 103°41'0 0.0
2017-Oct-16 13:28N 01°18' E 103°41'0 0.0
2017-Oct-16 12:58N 01°18' E 103°41'0 0.0
2017-Oct-16 12:28N 01°18' E 103°41'0 0.0
2017-Oct-16 11:55N 01°18' E 103°41'0 0.0
2017-Oct-16 11:28N 01°18' E 103°41'0 0.0
2017-Oct-16 10:58N 01°18' E 103°41'0 0.0
2017-Oct-16 10:25N 01°18' E 103°41'0 0.0
2017-Oct-16 09:58N 01°18' E 103°41'0 0.0
2017-Oct-16 09:28N 01°18' E 103°41'0 0.0
2017-Oct-16 08:55N 01°18' E 103°41'0 0.0
2017-Oct-16 08:28N 01°18' E 103°41'0 0.0
2017-Oct-16 07:58N 01°18' E 103°41'0 0.0
2017-Oct-16 07:28N 01°18' E 103°41'0 0.0
2017-Oct-16 06:58N 01°18' E 103°41'0 0.0
2017-Oct-16 06:28N 01°18' E 103°41'0 0.0
2017-Oct-16 05:58N 01°18' E 103°41'0 0.0
2017-Oct-16 05:28N 01°18' E 103°41'0 0.0
2017-Oct-16 04:58N 01°18' E 103°41'0 0.0
2017-Oct-16 04:28N 01°18' E 103°41'0 0.0
2017-Oct-16 03:55N 01°18' E 103°41'0 0.0
2017-Oct-16 03:28N 01°18' E 103°41'0 0.0
2017-Oct-16 02:55N 01°18' E 103°41'0 0.0
2017-Oct-16 02:28N 01°18' E 103°41'0 0.0
2017-Oct-16 01:58N 01°18' E 103°41'0 0.0
2017-Oct-16 01:28N 01°18' E 103°41'0 0.0
2017-Oct-16 00:55N 01°18' E 103°41'0 0.0
2017-Oct-16 00:28N 01°18' E 103°41'0 0.0
2017-Oct-15 23:58N 01°18' E 103°41'0 0.0
2017-Oct-15 23:28N 01°18' E 103°41'0 0.0
2017-Oct-15 22:55N 01°18' E 103°41'0 0.0
2017-Oct-15 22:28N 01°18' E 103°41'0 0.0
2017-Oct-15 21:58N 01°18' E 103°41'0 0.0
2017-Oct-15 21:28N 01°18' E 103°41'0 0.0
2017-Oct-15 20:58N 01°18' E 103°41'0 0.0
2017-Oct-15 20:28N 01°18' E 103°41'0 0.0
2017-Oct-15 19:55N 01°18' E 103°41'0 0.0
2017-Oct-15 19:28N 01°18' E 103°41'0 0.0
2017-Oct-15 18:58N 01°18' E 103°41'0 0.0
2017-Oct-15 18:16N 01°18' E 103°41'0 0.0
2017-Oct-15 17:58N 01°18' E 103°41'0 0.0
2017-Oct-15 17:28N 01°18' E 103°41'0 0.0
2017-Oct-15 16:58N 01°18' E 103°41'0 0.0
2017-Oct-15 16:28N 01°18' E 103°41'0 0.0
2017-Oct-15 15:58N 01°18' E 103°41'0 0.0
2017-Oct-15 15:28N 01°18' E 103°41'0 0.0
2017-Oct-15 14:55N 01°18' E 103°41'0 0.0
2017-Oct-15 13:49N 01°18' E 103°41'0 0.0
2017-Oct-15 13:28N 01°18' E 103°41'0 0.0
2017-Oct-15 12:55N 01°18' E 103°41'0 0.0
2017-Oct-15 12:25N 01°18' E 103°41'0 0.0
2017-Oct-15 11:58N 01°18' E 103°41'0 0.0
2017-Oct-15 11:28N 01°18' E 103°41'0 0.0
2017-Oct-15 10:49N 01°18' E 103°41'0 0.0
2017-Oct-15 09:22N 01°18' E 103°41'0 0.0
2017-Oct-15 08:07N 01°18' E 103°41'0 0.0
2017-Oct-15 07:55N 01°18' E 103°41'0 0.0
2017-Oct-15 06:52N 01°18' E 103°41'0 0.0
2017-Oct-15 06:28N 01°18' E 103°41'0 0.0
2017-Oct-15 05:46N 01°18' E 103°41'0 0.0
2017-Oct-15 05:28N 01°18' E 103°41'0 0.0
2017-Oct-15 04:49N 01°18' E 103°41'0 0.0
2017-Oct-15 04:25N 01°18' E 103°41'0 0.0
2017-Oct-15 03:58N 01°18' E 103°41'0 0.0
2017-Oct-15 03:28N 01°18' E 103°41'0 0.0
2017-Oct-15 02:52N 01°18' E 103°41'0 0.0
2017-Oct-15 02:25N 01°18' E 103°41'0 0.0
2017-Oct-15 01:49N 01°18' E 103°41'0 0.0
2017-Oct-15 01:28N 01°18' E 103°41'0 0.0
2017-Oct-15 00:52N 01°18' E 103°41'0 0.0
2017-Oct-15 00:28N 01°18' E 103°41'0 0.0
2017-Oct-14 23:58N 01°18' E 103°41'0 0.0
2017-Oct-14 23:25N 01°18' E 103°41'0 0.0
2017-Oct-14 22:55N 01°18' E 103°41'0 0.0
2017-Oct-14 22:22N 01°18' E 103°41'0 0.0
2017-Oct-14 21:58N 01°18' E 103°41'0 0.0
2017-Oct-14 21:10N 01°18' E 103°41'0 0.0
2017-Oct-14 20:58N 01°18' E 103°41'0 0.0
2017-Oct-14 20:22N 01°18' E 103°41'0 0.0
2017-Oct-14 19:55N 01°18' E 103°41'0 0.0
2017-Oct-14 19:28N 01°18' E 103°41'0 0.0
2017-Oct-14 18:55N 01°18' E 103°41'0 0.0
2017-Oct-14 18:28N 01°18' E 103°41'0 0.0
2017-Oct-14 17:58N 01°18' E 103°41'0 0.0
2017-Oct-14 17:25N 01°18' E 103°41'0 0.0
2017-Oct-14 16:55N 01°18' E 103°41'0 0.0
2017-Oct-14 16:22N 01°18' E 103°41'0 0.0
2017-Oct-14 15:55N 01°18' E 103°41'0 0.0
2017-Oct-14 15:28N 01°18' E 103°41'0 0.0
2017-Oct-14 14:49N 01°18' E 103°41'0 0.0
2017-Oct-14 14:28N 01°18' E 103°41'0 0.0
2017-Oct-14 13:52N 01°18' E 103°41'0 0.0
2017-Oct-14 13:19N 01°18' E 103°41'0 0.0
2017-Oct-14 12:52N 01°18' E 103°41'0 0.0
2017-Oct-14 12:25N 01°18' E 103°41'0 0.0
2017-Oct-14 11:58N 01°18' E 103°41'0 0.0
2017-Oct-14 11:28N 01°18' E 103°41'0 0.0
2017-Oct-14 10:58N 01°18' E 103°41'0 0.0
2017-Oct-14 10:25N 01°18' E 103°41'0 0.0
2017-Oct-14 09:58N 01°18' E 103°41'0 0.0
2017-Oct-14 09:25N 01°18' E 103°41'0 0.0
2017-Oct-14 08:58N 01°18' E 103°41'0 0.0
2017-Oct-14 08:25N 01°18' E 103°41'0 0.0
2017-Oct-14 07:55N 01°18' E 103°41'0 0.0
2017-Oct-14 07:25N 01°18' E 103°41'0 0.0
2017-Oct-14 06:58N 01°18' E 103°41'0 0.0
2017-Oct-14 06:28N 01°18' E 103°41'0 0.0
2017-Oct-14 05:58N 01°18' E 103°41'0 0.0
2017-Oct-14 05:28N 01°18' E 103°41'0 0.0
2017-Oct-14 04:58N 01°18' E 103°41'0 0.0
2017-Oct-14 04:28N 01°18' E 103°41'0 0.0
2017-Oct-14 03:58N 01°18' E 103°41'0 0.0
2017-Oct-14 03:25N 01°18' E 103°41'0 0.0
2017-Oct-14 02:58N 01°18' E 103°41'0 0.0
2017-Oct-14 02:28N 01°18' E 103°41'0 0.0
2017-Oct-14 01:58N 01°18' E 103°41'0 0.0
2017-Oct-14 01:28N 01°18' E 103°41'0 0.0
2017-Oct-14 00:58N 01°18' E 103°41'0 0.0
2017-Oct-14 00:28N 01°18' E 103°41'0 0.0
2017-Oct-13 23:58N 01°18' E 103°41'0 0.0
2017-Oct-13 23:28N 01°18' E 103°41'0 0.0
2017-Oct-13 22:58N 01°18' E 103°41'0 0.0
2017-Oct-13 22:28N 01°18' E 103°41'0 0.0
2017-Oct-13 21:58N 01°18' E 103°41'0 0.0
2017-Oct-13 21:28N 01°18' E 103°41'0 0.0
2017-Oct-13 20:58N 01°18' E 103°41'0 0.0
2017-Oct-13 20:28N 01°18' E 103°41'0 0.0
2017-Oct-13 19:49N 01°18' E 103°41'0 0.0
2017-Oct-13 19:28N 01°18' E 103°41'0 0.0
2017-Oct-13 18:52N 01°18' E 103°41'0 0.0
2017-Oct-13 18:28N 01°18' E 103°41'0 0.0
2017-Oct-13 17:58N 01°18' E 103°41'0 0.0
2017-Oct-13 17:22N 01°18' E 103°41'0 0.0
2017-Oct-13 16:49N 01°18' E 103°41'0 0.0
2017-Oct-13 16:28N 01°18' E 103°41'0 0.0
2017-Oct-13 15:52N 01°18' E 103°41'0 0.0
2017-Oct-13 15:28N 01°18' E 103°41'0 0.0
2017-Oct-13 14:43N 01°18' E 103°41'0 0.0
2017-Oct-13 14:28N 01°18' E 103°41'0 0.0
2017-Oct-13 13:58N 01°18' E 103°41'0 0.0
2017-Oct-13 13:28N 01°18' E 103°41'0 0.0
2017-Oct-13 12:55N 01°18' E 103°41'0 0.0
2017-Oct-13 12:28N 01°18' E 103°41'0 0.0
2017-Oct-13 11:58N 01°18' E 103°41'0 0.0
2017-Oct-13 11:28N 01°18' E 103°41'0 0.0
2017-Oct-13 10:55N 01°18' E 103°41'0 0.0
2017-Oct-13 10:22N 01°18' E 103°41'0 0.0
2017-Oct-13 09:55N 01°18' E 103°41'0 0.0
2017-Oct-13 09:28N 01°18' E 103°41'0 0.0
2017-Oct-13 08:58N 01°18' E 103°41'0 0.0
2017-Oct-13 08:25N 01°18' E 103°41'0 0.0
2017-Oct-13 07:58N 01°18' E 103°41'0 0.0
2017-Oct-13 07:28N 01°18' E 103°41'0 0.0
2017-Oct-13 06:58N 01°18' E 103°41'0 0.0
2017-Oct-13 06:28N 01°18' E 103°41'0 0.0
2017-Oct-13 05:52N 01°18' E 103°41'0 0.0
2017-Oct-13 05:28N 01°18' E 103°41'0 0.0
2017-Oct-13 04:58N 01°18' E 103°41'0 0.0
2017-Oct-13 04:28N 01°18' E 103°41'0 0.0
2017-Oct-13 03:58N 01°18' E 103°41'0 0.0
2017-Oct-13 03:28N 01°18' E 103°41'0 0.0
2017-Oct-13 02:58N 01°18' E 103°41'0 0.0
2017-Oct-13 02:28N 01°18' E 103°41'0 0.0
2017-Oct-13 01:58N 01°18' E 103°41'0 0.0
2017-Oct-13 01:28N 01°18' E 103°41'0 0.0
2017-Oct-13 00:58N 01°18' E 103°41'0 0.0
2017-Oct-13 00:28N 01°18' E 103°41'0 0.0
2017-Oct-12 23:55N 01°18' E 103°41'0 0.0
2017-Oct-12 23:28N 01°18' E 103°41'0 0.0
2017-Oct-12 22:58N 01°18' E 103°41'0 0.0
2017-Oct-12 22:28N 01°18' E 103°41'0 0.0
2017-Oct-12 21:58N 01°18' E 103°41'0 0.0
2017-Oct-12 21:25N 01°18' E 103°41'0 0.0
2017-Oct-12 20:58N 01°18' E 103°41'0 0.0
2017-Oct-12 20:28N 01°18' E 103°41'0 0.0
2017-Oct-12 19:58N 01°18' E 103°41'0 0.0
2017-Oct-12 19:28N 01°18' E 103°41'0 0.0
2017-Oct-12 18:55N 01°18' E 103°41'0 0.0
2017-Oct-12 18:25N 01°18' E 103°41'0 0.0
2017-Oct-12 17:58N 01°18' E 103°41'0 0.0
2017-Oct-12 17:28N 01°18' E 103°41'0 0.0
2017-Oct-12 16:55N 01°18' E 103°41'0 0.0
2017-Oct-12 16:28N 01°18' E 103°41'0 0.0
2017-Oct-12 15:58N 01°18' E 103°41'0 0.0
2017-Oct-12 15:28N 01°18' E 103°41'0 0.0
2017-Oct-12 14:55N 01°18' E 103°41'0 0.0
2017-Oct-12 14:25N 01°18' E 103°41'0 0.0
2017-Oct-12 13:49N 01°18' E 103°41'0 0.0
2017-Oct-12 13:28N 01°18' E 103°41'0 0.0
2017-Oct-12 12:58N 01°18' E 103°41'0 0.0
2017-Oct-12 12:19N 01°18' E 103°41'0 0.0
2017-Oct-12 11:55N 01°18' E 103°41'0 0.0
2017-Oct-12 11:28N 01°18' E 103°41'0 0.0
2017-Oct-12 10:58N 01°18' E 103°41'0 0.0
2017-Oct-12 10:22N 01°18' E 103°41'0 0.0
2017-Oct-12 09:58N 01°18' E 103°41'0 0.0
2017-Oct-12 09:22N 01°18' E 103°41'0 0.0
2017-Oct-12 08:58N 01°18' E 103°41'0 0.0
2017-Oct-12 08:28N 01°18' E 103°41'0 0.0
2017-Oct-12 07:58N 01°18' E 103°41'0 0.0
2017-Oct-12 07:28N 01°18' E 103°41'0 0.0
2017-Oct-12 06:55N 01°18' E 103°41'0 0.0
2017-Oct-12 06:28N 01°18' E 103°41'0 0.0
2017-Oct-12 05:58N 01°18' E 103°41'0 0.0
2017-Oct-12 05:28N 01°18' E 103°41'0 0.0
2017-Oct-12 04:58N 01°18' E 103°41'0 0.0
2017-Oct-12 04:28N 01°18' E 103°41'0 0.0
2017-Oct-12 03:58N 01°18' E 103°41'0 0.0
2017-Oct-12 03:28N 01°18' E 103°41'0 0.0
2017-Oct-12 02:46N 01°18' E 103°41'0 0.0
2017-Oct-12 02:22N 01°18' E 103°41'0 0.0
2017-Oct-12 01:58N 01°18' E 103°41'  

Dump ship's entire track history